Time;durP1;ratioP1;P1;durP2;ratioP2;P2;SDS_P1;SDS_P2;PMS_P1;PMS_P2;Temp;Humidity;BMP_temperature;BMP_pressure;BME280_temperature;BME280_humidity;BME280_pressure;Samples;Min_cycle;Max_cycle;Signal;HPM_P1;HPM_P2
2022/05/30 00:01:16;;;;;;;2.20;1.52;;;9.80;99.90;;;;;;4646518;28;9999679;-86
2022/05/30 00:03:42;;;;;;;2.60;1.42;;;9.90;99.90;;;;;;5000708;28;20025;-85
2022/05/30 00:06:12;;;;;;;3.72;1.70;;;9.80;99.90;;;;;;5003025;28;20517;-86
2022/05/30 00:08:38;;;;;;;3.50;1.98;;;9.90;99.90;;;;;;4994917;28;20116;-86
2022/05/30 00:11:06;;;;;;;2.45;1.83;;;9.80;99.90;;;;;;4995309;28;20034;-86
2022/05/30 00:13:32;;;;;;;3.60;1.70;;;9.80;99.90;;;;;;4997678;28;20034;-86
2022/05/30 00:16:03;;;;;;;2.75;2.08;;;9.80;99.90;;;;;;5000223;28;20569;-86
2022/05/30 00:18:28;;;;;;;2.53;2.08;;;9.80;99.90;;;;;;5003500;28;20113;-86
2022/05/30 00:20:54;;;;;;;5.45;2.53;;;9.90;99.90;;;;;;4997600;28;20109;-86
2022/05/30 00:23:20;;;;;;;3.28;1.95;;;9.90;99.90;;;;;;5001231;28;20030;-86
2022/05/30 00:25:45;;;;;;;5.35;2.50;;;10.00;99.90;;;;;;4996591;28;20044;-86
2022/05/30 00:28:11;;;;;;;4.18;2.35;;;10.00;99.90;;;;;;4999103;28;20517;-86
2022/05/30 00:30:38;;;;;;;5.20;2.50;;;10.00;99.90;;;;;;5001091;28;20030;-85
2022/05/30 00:33:03;;;;;;;4.22;2.70;;;10.00;99.90;;;;;;5004512;28;20506;-85
2022/05/30 00:35:29;;;;;;;8.38;2.70;;;10.00;99.90;;;;;;5004054;28;20040;-86
2022/05/30 00:37:56;;;;;;;6.65;3.55;;;9.90;99.90;;;;;;5001147;28;20033;-85
2022/05/30 00:40:22;;;;;;;6.40;3.30;;;9.90;99.90;;;;;;5000985;28;20640;-86
2022/05/30 00:42:47;;;;;;;6.65;3.53;;;9.90;99.90;;;;;;5002375;28;20068;-85
2022/05/30 00:45:13;;;;;;;5.90;3.00;;;9.80;99.90;;;;;;5002819;28;20182;-86
2022/05/30 00:47:39;;;;;;;5.53;2.97;;;9.70;99.90;;;;;;4995631;28;20030;-86
2022/05/30 00:50:06;;;;;;;5.72;3.17;;;9.70;99.90;;;;;;4999532;28;20041;-86
2022/05/30 00:52:39;;;;;;;5.63;2.72;;;9.70;99.90;;;;;;4998413;28;20053;-85
2022/05/30 00:55:05;;;;;;;;;;;9.70;99.90;;;;;;5001038;28;20682;-86
2022/05/30 00:57:32;;;;;;;5.85;2.78;;;9.70;99.90;;;;;;5003821;28;20004;-86
2022/05/30 00:59:59;;;;;;;4.93;3.10;;;9.70;99.90;;;;;;4997217;28;20045;-86
2022/05/30 01:02:28;;;;;;;4.43;2.85;;;9.70;99.90;;;;;;5000408;28;20068;-87
2022/05/30 01:07:41;;;;;;;5.78;2.60;;;9.70;99.90;;;;;;4999956;28;20396;-86
2022/05/30 01:10:09;;;;;;;6.15;2.45;;;9.70;99.90;;;;;;4997351;28;20033;-86
2022/05/30 01:12:44;;;;;;;6.97;2.40;;;9.70;99.90;;;;;;4997854;28;20053;-86
2022/05/30 01:15:13;;;;;;;5.75;2.42;;;9.60;99.90;;;;;;5004700;28;20108;-86
2022/05/30 01:18:02;;;;;;;6.00;2.47;;;9.50;99.90;;;;;;5002676;28;20382;-86
2022/05/30 01:20:39;;;;;;;4.68;2.30;;;9.50;99.90;;;;;;5002861;28;20529;-87
2022/05/30 01:23:28;;;;;;;4.38;2.05;;;9.40;99.90;;;;;;5004572;28;20248;-86
2022/05/30 01:26:09;;;;;;;4.28;2.17;;;9.40;99.90;;;;;;4983452;28;20081;-86
2022/05/30 01:28:39;;;;;;;6.05;2.30;;;9.40;99.90;;;;;;5001050;28;20112;-86
2022/05/30 01:31:06;;;;;;;5.25;2.13;;;9.40;99.90;;;;;;5004360;28;20034;-88
2022/05/30 01:33:32;;;;;;;5.57;2.40;;;9.30;99.90;;;;;;5001802;28;20046;-85
2022/05/30 01:35:58;;;;;;;5.70;2.38;;;9.30;99.90;;;;;;5003518;28;20555;-86
2022/05/30 01:38:24;;;;;;;4.03;1.95;;;9.30;99.90;;;;;;5002237;28;20030;-86
2022/05/30 01:40:50;;;;;;;4.53;2.10;;;9.20;99.90;;;;;;5003100;28;20041;-86
2022/05/30 01:43:17;;;;;;;4.45;2.17;;;9.20;99.90;;;;;;4992303;28;20030;-86
2022/05/30 01:45:43;;;;;;;4.65;2.00;;;9.20;99.90;;;;;;4996865;28;20018;-86
2022/05/30 01:48:08;;;;;;;6.75;2.20;;;9.20;99.90;;;;;;4998453;28;20049;-86
2022/05/30 01:50:34;;;;;;;5.75;2.30;;;9.20;99.90;;;;;;4994421;28;20030;-86
2022/05/30 01:53:00;;;;;;;4.13;2.28;;;9.20;99.90;;;;;;5000638;28;20116;-86
2022/05/30 01:55:26;;;;;;;6.32;2.10;;;9.10;99.90;;;;;;4995705;28;20125;-86
2022/05/30 01:57:52;;;;;;;5.72;2.00;;;9.10;99.90;;;;;;4996361;28;20032;-86
2022/05/30 02:00:18;;;;;;;3.85;1.80;;;9.20;99.90;;;;;;4998053;28;20389;-86
2022/05/30 02:02:43;;;;;;;5.32;1.90;;;9.20;99.90;;;;;;5002783;28;20026;-86
2022/05/30 02:05:11;;;;;;;2.97;1.52;;;9.10;99.90;;;;;;5002239;28;20037;-86
2022/05/30 02:07:36;;;;;;;5.60;1.90;;;9.10;99.90;;;;;;4997428;28;20045;-87
2022/05/30 02:10:04;;;;;;;6.28;1.70;;;9.00;99.90;;;;;;4993477;28;20550;-86
2022/05/30 02:12:29;;;;;;;3.80;1.52;;;9.00;99.90;;;;;;5000397;28;20028;-86
2022/05/30 02:14:55;;;;;;;5.10;2.00;;;8.90;99.90;;;;;;4998868;28;20136;-87
2022/05/30 02:17:20;;;;;;;6.95;1.85;;;8.90;99.90;;;;;;5002910;28;20466;-87
2022/05/30 02:19:46;;;;;;;7.57;1.73;;;8.90;99.90;;;;;;4995285;28;20018;-86
2022/05/30 02:22:17;;;;;;;7.60;2.10;;;8.80;99.90;;;;;;5000355;28;20191;-87
2022/05/30 02:24:43;;;;;;;8.00;2.00;;;8.90;99.90;;;;;;5004161;28;20258;-87
2022/05/30 02:27:14;;;;;;;13.45;2.70;;;8.90;99.90;;;;;;5001621;28;20046;-86
2022/05/30 02:29:40;;;;;;;9.57;2.38;;;8.80;99.90;;;;;;4999699;28;20053;-87
2022/05/30 02:32:06;;;;;;;8.85;2.25;;;8.80;99.90;;;;;;4990758;28;20509;-87
2022/05/30 02:37:16;;;;;;;9.00;2.33;;;8.80;99.90;;;;;;4997225;28;20109;-88
2022/05/30 02:39:42;;;;;;;9.80;2.30;;;8.90;99.90;;;;;;5000750;28;21764;-88
2022/05/30 02:42:08;;;;;;;5.63;1.95;;;8.90;99.90;;;;;;5000557;28;20037;-88
2022/05/30 02:44:34;;;;;;;12.45;2.28;;;8.80;99.90;;;;;;4998914;28;20034;-88
2022/05/30 02:47:00;;;;;;;7.07;2.40;;;8.90;99.90;;;;;;4997932;28;20105;-88
2022/05/30 02:49:27;;;;;;;5.68;1.95;;;9.00;99.90;;;;;;4997501;28;20189;-88
2022/05/30 02:51:54;;;;;;;9.63;1.90;;;8.90;99.90;;;;;;4995361;28;20034;-88
2022/05/30 02:54:20;;;;;;;10.02;2.35;;;9.00;99.90;;;;;;5001071;28;20121;-88
2022/05/30 02:56:50;;;;;;;7.95;2.08;;;8.90;99.90;;;;;;4997595;28;20084;-88
2022/05/30 02:59:16;;;;;;;7.10;2.15;;;9.00;99.90;;;;;;4991238;28;20030;-88
2022/05/30 03:01:42;;;;;;;7.72;2.20;;;9.00;99.90;;;;;;4995665;28;20130;-87
2022/05/30 03:04:08;;;;;;;8.75;2.45;;;9.00;99.90;;;;;;4993173;28;20030;-88
2022/05/30 03:06:34;;;;;;;7.53;2.10;;;9.00;99.90;;;;;;4994745;28;20068;-88
2022/05/30 03:09:00;;;;;;;11.43;2.42;;;8.90;99.90;;;;;;4995522;28;20038;-88
2022/05/30 03:11:26;;;;;;;8.10;2.30;;;9.00;99.90;;;;;;4999701;28;20056;-88
2022/05/30 03:13:52;;;;;;;7.68;2.20;;;9.00;99.90;;;;;;5000849;28;20120;-89
2022/05/30 03:16:17;;;;;;;8.07;2.25;;;9.00;99.90;;;;;;5003614;28;20505;-88
2022/05/30 03:18:43;;;;;;;4.53;1.95;;;8.90;99.90;;;;;;4995085;28;20116;-89
2022/05/30 03:21:10;;;;;;;3.55;1.83;;;8.80;99.90;;;;;;4994943;28;20532;-89
2022/05/30 03:23:36;;;;;;;7.28;2.05;;;8.80;99.90;;;;;;4994391;28;20494;-89
2022/05/30 03:26:02;;;;;;;6.60;1.88;;;8.90;99.90;;;;;;5000912;28;20037;-88
2022/05/30 03:28:28;;;;;;;7.47;2.50;;;8.90;99.90;;;;;;4992935;28;20667;-88
2022/05/30 03:30:54;;;;;;;6.10;2.10;;;9.00;99.90;;;;;;4999947;28;20042;-89
2022/05/30 03:33:19;;;;;;;6.93;2.10;;;9.00;99.90;;;;;;4997522;28;20061;-88
2022/05/30 03:35:46;;;;;;;5.60;2.40;;;8.90;99.90;;;;;;5001051;28;20026;-88
2022/05/30 03:38:12;;;;;;;7.35;2.08;;;8.90;99.90;;;;;;4995176;28;20562;-88
2022/05/30 03:40:38;;;;;;;10.63;2.40;;;8.80;99.90;;;;;;4997449;28;20029;-88
2022/05/30 03:43:09;;;;;;;4.13;2.15;;;8.80;99.90;;;;;;4994326;28;20079;-88
2022/05/30 03:45:40;;;;;;;5.53;2.33;;;8.80;99.90;;;;;;4994779;28;20232;-88
2022/05/30 03:48:07;;;;;;;7.22;2.20;;;8.80;99.90;;;;;;4997185;28;20026;-89
2022/05/30 03:50:33;;;;;;;5.75;2.20;;;8.80;99.90;;;;;;4993385;28;21077;-89
2022/05/30 03:53:05;;;;;;;7.78;2.28;;;8.80;99.90;;;;;;5004123;28;20049;-88
2022/05/30 03:55:34;;;;;;;7.65;2.40;;;8.80;99.90;;;;;;4995987;28;20474;-89
2022/05/30 03:58:04;;;;;;;8.18;2.20;;;8.80;99.90;;;;;;4997928;28;20450;-89
2022/05/30 04:00:31;;;;;;;6.93;2.40;;;8.80;99.90;;;;;;4991576;28;20512;-88
2022/05/30 04:02:58;;;;;;;8.73;2.95;;;8.90;99.90;;;;;;4999252;28;20462;-89
2022/05/30 04:05:25;;;;;;;5.13;2.42;;;9.00;99.90;;;;;;4997651;28;20489;-88
2022/05/30 04:07:51;;;;;;;5.10;2.53;;;9.10;99.90;;;;;;4998784;28;20530;-88
2022/05/30 04:10:17;;;;;;;9.02;2.90;;;9.10;99.90;;;;;;5007873;28;20044;-88
2022/05/30 04:12:43;;;;;;;9.18;3.17;;;9.20;99.90;;;;;;5000361;28;20107;-88
2022/05/30 04:15:16;;;;;;;5.85;2.65;;;9.20;99.90;;;;;;5001407;28;20390;-88
2022/05/30 04:17:41;;;;;;;4.85;2.50;;;9.20;99.90;;;;;;5000724;28;20077;-88
2022/05/30 04:20:08;;;;;;;8.18;2.67;;;9.20;99.90;;;;;;5001446;28;20714;-88
2022/05/30 04:22:34;;;;;;;8.93;3.40;;;9.20;99.90;;;;;;5006348;28;20026;-88
2022/05/30 04:24:59;;;;;;;11.30;3.47;;;9.20;99.90;;;;;;4998677;28;20242;-89
2022/05/30 04:27:25;;;;;;;7.30;2.88;;;9.20;99.90;;;;;;5005921;28;20038;-89
2022/05/30 04:29:51;;;;;;;6.93;3.00;;;9.20;99.90;;;;;;4999998;28;20100;-88
2022/05/30 04:32:17;;;;;;;8.05;2.85;;;9.30;99.90;;;;;;4988763;28;20141;-88
2022/05/30 04:34:43;;;;;;;7.43;3.13;;;9.30;99.90;;;;;;4997309;28;20033;-88
2022/05/30 04:37:09;;;;;;;10.60;3.30;;;9.30;99.90;;;;;;5002719;28;20048;-89
2022/05/30 04:39:35;;;;;;;10.32;3.10;;;9.40;99.90;;;;;;5001242;28;20029;-88
2022/05/30 04:42:01;;;;;;;13.05;3.38;;;9.40;99.90;;;;;;5006705;28;20529;-88
2022/05/30 04:44:27;;;;;;;12.43;3.38;;;9.50;99.90;;;;;;4996373;28;20037;-88
2022/05/30 04:46:57;;;;;;;8.60;3.00;;;9.60;99.90;;;;;;4999011;28;20041;-88
2022/05/30 04:49:24;;;;;;;8.68;2.45;;;9.60;99.90;;;;;;5000142;28;20037;-88
2022/05/30 04:51:50;;;;;;;8.60;3.08;;;9.70;99.90;;;;;;5001682;28;20079;-88
2022/05/30 04:54:17;;;;;;;10.48;3.35;;;9.60;99.90;;;;;;5001924;28;20033;-88
2022/05/30 04:56:43;;;;;;;7.95;2.90;;;9.70;99.90;;;;;;5001999;28;20026;-88
2022/05/30 04:59:09;;;;;;;7.53;3.05;;;9.70;99.90;;;;;;4996953;28;20500;-88
2022/05/30 05:01:36;;;;;;;9.77;3.53;;;9.70;99.90;;;;;;5004679;28;20116;-88
2022/05/30 05:04:06;;;;;;;8.90;3.17;;;9.70;99.90;;;;;;5000642;28;20123;-88
2022/05/30 05:06:32;;;;;;;11.40;3.70;;;9.70;99.90;;;;;;5002390;28;20451;-87
2022/05/30 05:09:06;;;;;;;11.95;3.67;;;9.80;99.90;;;;;;4998494;28;20267;-87
2022/05/30 05:11:34;;;;;;;10.32;3.10;;;9.80;99.90;;;;;;5004930;28;20056;-87
2022/05/30 05:13:59;;;;;;;9.68;3.15;;;9.90;99.90;;;;;;4996733;28;20061;-87
2022/05/30 05:16:28;;;;;;;15.32;3.60;;;9.90;99.90;;;;;;4991412;28;20529;-87
2022/05/30 05:18:54;;;;;;;9.75;3.13;;;10.00;99.90;;;;;;4994438;28;20160;-86
2022/05/30 05:21:20;;;;;;;12.75;3.03;;;10.00;99.90;;;;;;4998489;28;20029;-87
2022/05/30 05:23:46;;;;;;;11.57;3.08;;;10.10;99.90;;;;;;4308304;28;10001030;-88
2022/05/30 05:26:12;;;;;;;9.57;3.47;;;10.10;99.90;;;;;;4987429;28;20048;-85
2022/05/30 05:28:38;;;;;;;10.30;2.88;;;10.30;99.90;;;;;;4994872;28;20043;-87
2022/05/30 05:31:06;;;;;;;11.68;3.10;;;10.40;99.90;;;;;;4987469;28;20085;-87
2022/05/30 05:33:32;;;;;;;7.75;3.03;;;10.40;99.90;;;;;;4994078;28;20142;-87
2022/05/30 05:35:57;;;;;;;9.52;3.00;;;10.50;99.90;;;;;;4983287;28;20034;-87
2022/05/30 05:38:23;;;;;;;6.90;2.75;;;10.50;99.90;;;;;;4982235;28;20483;-87
2022/05/30 05:40:48;;;;;;;9.15;4.25;;;10.50;99.90;;;;;;4987024;28;20077;-86
2022/05/30 05:43:14;;;;;;;6.72;3.25;;;10.50;99.90;;;;;;5016031;28;20044;-87
2022/05/30 05:45:42;;;;;;;9.90;4.13;;;10.40;99.90;;;;;;4990991;28;20040;-86
2022/05/30 05:48:09;;;;;;;10.05;4.80;;;10.30;99.90;;;;;;4994536;28;20033;-86
2022/05/30 05:50:38;;;;;;;7.88;4.03;;;10.20;99.90;;;;;;4991735;28;20041;-86
2022/05/30 05:53:04;;;;;;;10.52;4.38;;;10.20;99.90;;;;;;4989520;28;20042;-86
2022/05/30 05:55:30;;;;;;;8.50;4.20;;;10.30;99.90;;;;;;4999798;28;20058;-86
2022/05/30 05:57:55;;;;;;;10.02;3.78;;;10.50;99.90;;;;;;5006986;28;20026;-85
2022/05/30 06:00:21;;;;;;;9.85;4.00;;;10.60;99.90;;;;;;5003291;28;20390;-86
2022/05/30 06:02:47;;;;;;;9.27;3.67;;;10.60;99.90;;;;;;5000257;28;20474;-85
2022/05/30 06:05:13;;;;;;;12.75;4.30;;;10.70;99.90;;;;;;5001881;28;20034;-85
2022/05/30 06:07:42;;;;;;;10.27;3.85;;;10.80;99.90;;;;;;4999517;28;20236;-85
2022/05/30 06:10:10;;;;;;;9.60;3.75;;;10.80;99.90;;;;;;4998409;28;20022;-86
2022/05/30 06:13:06;;;;;;;6.47;3.47;;;10.80;99.90;;;;;;4996087;28;20030;-85
2022/05/30 06:15:31;;;;;;;9.20;3.67;;;10.80;99.90;;;;;;4993860;28;20132;-85
2022/05/30 06:17:57;;;;;;;9.85;3.58;;;10.80;99.90;;;;;;5005769;28;20129;-85
2022/05/30 06:20:22;;;;;;;10.05;3.20;;;10.90;99.90;;;;;;4997634;28;20037;-85
2022/05/30 06:22:48;;;;;;;7.65;3.15;;;11.10;99.90;;;;;;5004303;28;20065;-84
2022/05/30 06:25:13;;;;;;;9.48;3.67;;;11.30;99.90;;;;;;5005831;28;20196;-84
2022/05/30 06:27:39;;;;;;;13.13;3.83;;;11.40;99.90;;;;;;5006811;28;20022;-84
2022/05/30 06:30:05;;;;;;;9.05;3.50;;;11.40;99.90;;;;;;4997028;28;20029;-84
2022/05/30 06:32:31;;;;;;;11.43;4.03;;;11.40;99.90;;;;;;5001703;28;20054;-84
2022/05/30 06:34:56;;;;;;;7.78;4.00;;;11.40;99.90;;;;;;5000208;28;20580;-84
2022/05/30 06:37:22;;;;;;;11.65;3.38;;;11.50;99.90;;;;;;5005548;28;20060;-82
2022/05/30 06:39:51;;;;;;;10.82;3.00;;;11.50;99.90;;;;;;4997639;28;20037;-83
2022/05/30 06:42:16;;;;;;;8.07;3.10;;;11.60;99.90;;;;;;5005957;28;20215;-83
2022/05/30 06:44:43;;;;;;;11.25;3.25;;;11.70;99.90;;;;;;5005967;28;20041;-83
2022/05/30 06:47:08;;;;;;;8.27;3.22;;;11.70;99.90;;;;;;5002331;28;20041;-83
2022/05/30 06:49:34;;;;;;;9.57;3.20;;;11.70;99.90;;;;;;4991092;28;20029;-83
2022/05/30 06:52:00;;;;;;;10.00;3.53;;;11.70;99.90;;;;;;5005496;28;20033;-83
2022/05/30 06:54:26;;;;;;;13.85;3.33;;;11.80;99.90;;;;;;4996433;28;20393;-83
2022/05/30 06:59:36;;;;;;;11.40;2.45;;;11.80;99.90;;;;;;4988005;28;20040;-83
2022/05/30 07:02:04;;;;;;;10.70;3.40;;;11.80;99.90;;;;;;4993612;28;20029;-83
2022/05/30 07:04:31;;;;;;;8.68;2.70;;;11.80;99.90;;;;;;4994419;28;20033;-83
2022/05/30 07:06:57;;;;;;;9.20;3.10;;;11.80;99.90;;;;;;4997059;28;20291;-82
2022/05/30 07:09:23;;;;;;;8.13;2.63;;;11.80;99.90;;;;;;5003257;28;20030;-83
2022/05/30 07:11:49;;;;;;;8.48;2.17;;;11.80;99.90;;;;;;5003223;28;20026;-83
2022/05/30 07:14:16;;;;;;;9.68;2.25;;;11.90;99.90;;;;;;5002458;28;20505;-83
2022/05/30 07:16:42;;;;;;;9.63;2.42;;;12.00;99.90;;;;;;4998180;28;20713;-83
2022/05/30 07:19:09;;;;;;;8.07;1.80;;;12.00;99.90;;;;;;4991730;28;20060;-83
2022/05/30 07:21:35;;;;;;;6.97;1.90;;;12.10;99.90;;;;;;4998646;28;20061;-82
2022/05/30 07:24:00;;;;;;;4.72;1.70;;;12.20;99.90;;;;;;4997406;28;20087;-82
2022/05/30 07:26:26;;;;;;;11.15;1.95;;;12.10;99.90;;;;;;4998241;28;20421;-75
2022/05/30 07:28:52;;;;;;;6.65;1.48;;;12.10;99.90;;;;;;4999724;28;20061;-75
2022/05/30 07:31:20;;;;;;;6.38;1.63;;;12.20;99.90;;;;;;4989075;28;20055;-75
2022/05/30 07:33:48;;;;;;;7.90;1.88;;;12.30;99.90;;;;;;5000187;28;20180;-76
2022/05/30 07:36:26;;;;;;;8.40;1.77;;;12.40;99.90;;;;;;5004314;28;20022;-75
2022/05/30 07:38:53;;;;;;;6.25;1.80;;;12.60;99.90;;;;;;4991031;28;20030;-76
2022/05/30 07:41:21;;;;;;;6.45;1.80;;;12.70;99.90;;;;;;5002316;28;20026;-75
2022/05/30 07:43:47;;;;;;;8.70;2.30;;;12.70;99.90;;;;;;4991559;28;20383;-76
2022/05/30 07:46:15;;;;;;;7.88;2.08;;;12.70;99.90;;;;;;4989290;28;20839;-76
2022/05/30 07:48:41;;;;;;;6.70;1.80;;;12.70;99.90;;;;;;4994793;28;20263;-76
2022/05/30 07:51:07;;;;;;;11.55;2.10;;;12.70;99.90;;;;;;5004634;28;20033;-78
2022/05/30 07:53:35;;;;;;;7.18;1.95;;;12.70;99.90;;;;;;5003449;28;20625;-75
2022/05/30 07:56:04;;;;;;;5.50;1.75;;;12.60;99.90;;;;;;4992581;28;20477;-75
2022/05/30 07:58:30;;;;;;;11.90;2.58;;;12.70;99.90;;;;;;4997384;28;20057;-76
2022/05/30 08:00:55;;;;;;;8.32;2.35;;;12.70;99.90;;;;;;5001881;28;20050;-75
2022/05/30 08:03:22;;;;;;;12.13;3.25;;;12.70;99.90;;;;;;5002135;28;20329;-75
2022/05/30 08:05:48;;;;;;;5.60;2.30;;;12.70;99.90;;;;;;5001469;28;20654;-76
2022/05/30 08:08:14;;;;;;;6.88;2.33;;;12.60;99.90;;;;;;4997964;28;20117;-77
2022/05/30 08:10:41;;;;;;;6.20;2.28;;;12.60;99.90;;;;;;4993517;28;20033;-77
2022/05/30 08:13:06;;;;;;;7.97;2.28;;;12.50;99.90;;;;;;4997428;28;20502;-77
2022/05/30 08:15:32;;;;;;;5.07;2.38;;;12.40;99.90;;;;;;4994655;28;20045;-76
2022/05/30 08:17:59;;;;;;;6.70;2.10;;;12.30;99.90;;;;;;4994534;28;20512;-76
2022/05/30 08:20:28;;;;;;;9.07;3.10;;;12.30;99.90;;;;;;4996942;28;20542;-77
2022/05/30 08:22:54;;;;;;;8.90;2.50;;;12.30;99.90;;;;;;4993066;28;20037;-77
2022/05/30 08:25:20;;;;;;;7.82;1.90;;;12.30;99.90;;;;;;5000094;28;20029;-75
2022/05/30 08:27:47;;;;;;;5.97;2.08;;;12.30;99.90;;;;;;4997516;28;20088;-78
2022/05/30 08:30:16;;;;;;;8.02;2.05;;;12.40;99.90;;;;;;4990730;28;20117;-74
2022/05/30 08:32:44;;;;;;;9.57;2.45;;;12.50;99.90;;;;;;4996490;28;20671;-74
2022/05/30 08:35:13;;;;;;;10.73;2.28;;;12.60;99.90;;;;;;4999748;28;20382;-75
2022/05/30 08:37:40;;;;;;;5.00;1.65;;;12.60;99.90;;;;;;5001422;28;20039;-74
2022/05/30 08:42:55;;;;;;;7.75;1.70;;;12.70;99.90;;;;;;4998574;28;20111;-76
2022/05/30 08:45:23;;;;;;;7.35;1.90;;;12.60;99.90;;;;;;5001729;28;20086;-75
2022/05/30 08:47:50;;;;;;;6.85;1.95;;;12.60;99.90;;;;;;4992667;28;20042;-76
2022/05/30 08:50:30;;;;;;;6.88;1.77;;;12.70;99.90;;;;;;4993914;28;20030;-75
2022/05/30 08:53:36;;;;;;;7.45;1.80;;;12.70;99.90;;;;;;4995083;28;20397;-76
2022/05/30 08:56:19;;;;;;;5.03;1.55;;;12.60;99.90;;;;;;5004225;28;20044;-75
2022/05/30 08:58:58;;;;;;;7.10;1.75;;;12.60;99.90;;;;;;5002939;28;20034;-74
2022/05/30 09:01:39;;;;;;;6.80;2.03;;;12.70;99.90;;;;;;5006355;28;20034;-77
2022/05/30 09:04:19;;;;;;;8.70;1.80;;;12.70;99.90;;;;;;4995991;28;20037;-76
2022/05/30 09:06:58;;;;;;;7.28;1.67;;;12.70;99.90;;;;;;4998070;28;20428;-76
2022/05/30 09:09:34;;;;;;;5.28;1.48;;;12.80;99.90;;;;;;5000115;28;20029;-75
2022/05/30 09:12:15;;;;;;;7.53;1.70;;;12.90;99.90;;;;;;4995944;28;20034;-74
2022/05/30 09:14:46;;;;;;;7.68;1.50;;;13.00;99.90;;;;;;4999326;28;20246;-75
2022/05/30 09:17:26;;;;;;;8.13;1.80;;;13.20;99.90;;;;;;4998707;28;20101;-75
2022/05/30 09:19:53;;;;;;;4.80;1.33;;;13.30;99.90;;;;;;4996544;28;20117;-77
2022/05/30 09:22:21;;;;;;;6.22;1.70;;;13.50;99.90;;;;;;5001345;28;20544;-76
2022/05/30 09:25:55;;;;;;;7.82;1.70;;;13.70;99.90;;;;;;5004212;28;20531;-76
2022/05/30 09:27:32;;;;;;;5.78;1.40;;;13.80;99.90;;;;;;5004322;28;20126;-75
2022/05/30 09:30:00;;;;;;;4.05;1.38;;;13.80;99.90;;;;;;4993238;28;21120;-79
2022/05/30 09:32:34;;;;;;;8.43;2.00;;;14.00;99.90;;;;;;4999305;28;20207;-81
2022/05/30 09:35:29;;;;;;;6.80;1.75;;;14.10;99.90;;;;;;5006746;28;20053;-77
2022/05/30 09:38:20;;;;;;;9.52;1.73;;;14.30;99.90;;;;;;5000967;28;20037;-77
2022/05/30 09:40:55;;;;;;;7.97;1.80;;;14.40;99.90;;;;;;4997143;28;20021;-76
2022/05/30 09:43:51;;;;;;;6.00;1.38;;;14.40;99.90;;;;;;4996840;28;20034;-76
2022/05/30 09:46:30;;;;;;;3.47;1.45;;;14.50;99.90;;;;;;5004202;28;20626;-77
2022/05/30 09:49:04;;;;;;;5.15;1.17;;;14.50;99.90;;;;;;4991103;28;20034;-81
2022/05/30 09:51:34;;;;;;;7.85;1.40;;;14.50;99.90;;;;;;4997841;28;20519;-81
2022/05/30 09:54:00;;;;;;;6.10;1.58;;;14.60;99.90;;;;;;5003339;28;20438;-77
2022/05/30 09:56:27;;;;;;;5.32;1.30;;;14.60;99.90;;;;;;5003843;28;20105;-76
2022/05/30 09:59:04;;;;;;;3.58;1.55;;;14.60;99.90;;;;;;5000244;28;20035;-77
2022/05/30 10:01:33;;;;;;;4.78;1.35;;;14.50;99.90;;;;;;4999093;28;20027;-78
2022/05/30 10:04:20;;;;;;;4.95;1.30;;;14.40;99.90;;;;;;4997459;28;20027;-76
2022/05/30 10:07:06;;;;;;;3.90;1.30;;;14.50;99.90;;;;;;5001181;28;20046;-78
2022/05/30 10:09:36;;;;;;;5.82;1.40;;;14.50;99.90;;;;;;5002874;28;20037;-76
2022/05/30 10:12:02;;;;;;;7.43;1.40;;;14.50;99.90;;;;;;5003976;28;20029;-77
2022/05/30 10:14:32;;;;;;;4.15;1.10;;;14.60;99.90;;;;;;5007194;28;20029;-79
2022/05/30 10:17:10;;;;;;;5.07;1.48;;;14.70;99.90;;;;;;5008205;28;20037;-80
2022/05/30 10:19:40;;;;;;;4.03;1.17;;;14.80;99.90;;;;;;4999502;28;20795;-77
2022/05/30 10:28:49;;;;;;;5.22;1.23;;;15.10;99.90;;;;;;4992695;28;20064;-75
2022/05/30 10:31:55;;;;;;;3.80;1.00;;;15.40;99.90;;;;;;4996779;28;20034;-77
2022/05/30 10:34:27;;;;;;;4.38;1.17;;;15.60;99.90;;;;;;5001499;28;20524;-76
2022/05/30 10:36:58;;;;;;;7.00;1.40;;;15.70;99.90;;;;;;5000439;28;20125;-78
2022/05/30 10:39:42;;;;;;;5.25;1.40;;;15.70;99.90;;;;;;4999454;28;20033;-76
2022/05/30 10:42:20;;;;;;;3.25;0.90;;;15.60;99.90;;;;;;4996338;28;20076;-77
2022/05/30 10:44:54;;;;;;;3.90;1.17;;;15.40;99.90;;;;;;5004625;28;20050;-76
2022/05/30 10:47:53;;;;;;;2.38;1.10;;;15.20;99.90;;;;;;5001433;28;20088;-75
2022/05/30 10:50:51;;;;;;;2.75;0.90;;;14.80;99.90;;;;;;4988018;28;20053;-80
2022/05/30 10:53:30;;;;;;;6.63;1.45;;;14.60;99.90;;;;;;4989875;28;20057;-83
2022/05/30 10:55:59;;;;;;;3.50;1.45;;;14.50;99.90;;;;;;4999501;28;20611;-81
2022/05/30 10:58:41;;;;;;;2.65;1.17;;;14.40;99.90;;;;;;4992094;28;20033;-80
2022/05/30 11:01:12;;;;;;;4.18;1.25;;;14.40;99.90;;;;;;4991484;28;20026;-82
2022/05/30 11:03:49;;;;;;;4.00;1.30;;;14.40;99.90;;;;;;5002280;28;20026;-83
2022/05/30 11:06:18;;;;;;;3.42;1.13;;;14.30;99.90;;;;;;5000552;28;20057;-82
2022/05/30 11:09:10;;;;;;;3.05;1.25;;;14.40;99.90;;;;;;5003632;28;20022;-83
2022/05/30 11:11:39;;;;;;;3.95;1.02;;;14.40;99.90;;;;;;4999010;28;20497;-80
2022/05/30 11:14:17;;;;;;;2.25;1.13;;;14.60;99.90;;;;;;4991593;28;20418;-79
2022/05/30 11:17:23;;;;;;;2.78;1.00;;;14.70;99.90;;;;;;4998170;28;20065;-80
2022/05/30 11:20:10;;;;;;;5.15;1.10;;;14.90;99.90;;;;;;4978989;28;20045;-81
2022/05/30 11:22:36;;;;;;;3.95;1.20;;;15.20;99.90;;;;;;5003370;28;20037;-84
2022/05/30 11:25:04;;;;;;;2.80;0.85;;;15.20;99.90;;;;;;4990547;28;20033;-84
2022/05/30 11:27:35;;;;;;;2.83;0.90;;;15.30;99.90;;;;;;5001651;28;20026;-82
2022/05/30 11:30:13;;;;;;;2.75;1.08;;;15.40;99.90;;;;;;4992439;28;20490;-85
2022/05/30 11:33:06;;;;;;;3.70;0.88;;;15.50;98.30;;;;;;5001264;28;20068;-84
2022/05/30 11:35:43;;;;;;;3.50;1.27;;;15.50;98.00;;;;;;4999262;28;20084;-82
2022/05/30 11:38:44;;;;;;;2.70;1.25;;;15.70;99.90;;;;;;4992720;28;20037;-81
2022/05/30 11:41:40;;;;;;;3.25;0.98;;;15.90;99.90;;;;;;4991595;28;20394;-81
2022/05/30 11:44:18;;;;;;;6.22;1.50;;;16.20;99.90;;;;;;4997685;28;20105;-82
2022/05/30 11:46:55;;;;;;;4.90;1.40;;;16.10;99.90;;;;;;5003279;28;20059;-80
2022/05/30 11:49:32;;;;;;;4.78;1.38;;;15.80;99.90;;;;;;4993994;28;20080;-80
2022/05/30 11:52:13;;;;;;;9.55;1.85;;;15.40;99.90;;;;;;4998377;28;20045;-82
2022/05/30 11:54:50;;;;;;;4.45;1.30;;;15.30;99.90;;;;;;4996232;28;20053;-81
2022/05/30 11:57:37;;;;;;;6.50;1.70;;;15.20;99.90;;;;;;4995174;28;20056;-80
2022/05/30 12:00:21;;;;;;;4.15;1.40;;;15.20;99.90;;;;;;4997685;28;20083;-81
2022/05/30 12:02:58;;;;;;;;;;;15.20;99.90;;;;;;4997729;28;20490;-81
2022/05/30 12:06:17;;;;;;;4.13;1.40;;;15.30;99.90;;;;;;4999507;28;19964;-81
2022/05/30 12:09:07;;;;;;;4.40;1.20;;;15.50;99.90;;;;;;4975572;28;20503;-80
2022/05/30 12:11:42;;;;;;;6.07;1.20;;;15.70;99.70;;;;;;5002286;28;20069;-81
2022/05/30 12:14:37;;;;;;;4.60;1.50;;;15.90;98.90;;;;;;4997378;28;20038;-82
2022/05/30 12:17:32;;;;;;;5.32;1.45;;;15.80;99.20;;;;;;4999130;28;20125;-80
2022/05/30 12:25:57;;;;;;;4.93;1.38;;;16.70;95.30;;;;;;5004181;28;20041;-80
2022/05/30 12:28:29;;;;;;;6.70;1.50;;;16.70;96.40;;;;;;5001087;28;20026;-81
2022/05/30 12:31:01;;;;;;;3.35;1.40;;;16.50;96.20;;;;;;5006191;28;20806;-81
2022/05/30 12:33:30;;;;;;;3.33;1.13;;;16.30;95.00;;;;;;5000393;28;20107;-81
2022/05/30 12:36:10;;;;;;;3.40;1.10;;;16.10;95.60;;;;;;5005355;28;20454;-81
2022/05/30 12:38:56;;;;;;;4.43;1.25;;;16.00;96.40;;;;;;5000613;28;20029;-82
2022/05/30 12:41:25;;;;;;;2.25;1.00;;;16.00;94.60;;;;;;5006631;28;20506;-82
2022/05/30 12:43:51;;;;;;;4.28;1.10;;;16.10;95.10;;;;;;5003705;28;20034;-84
2022/05/30 12:46:20;;;;;;;2.53;1.17;;;16.00;93.80;;;;;;5000861;28;20037;-84
2022/05/30 12:48:58;;;;;;;2.42;1.05;;;16.10;93.10;;;;;;5000445;28;20049;-83
2022/05/30 12:51:37;;;;;;;3.25;0.80;;;16.20;93.10;;;;;;4998842;28;20022;-83
2022/05/30 12:54:02;;;;;;;3.08;0.90;;;16.30;92.10;;;;;;5002734;28;20537;-82
2022/05/30 12:56:37;;;;;;;3.72;1.10;;;16.50;91.40;;;;;;5003587;28;20022;-83
2022/05/30 12:59:03;;;;;;;2.42;0.85;;;16.60;91.40;;;;;;5000868;28;20028;-83
2022/05/30 13:01:44;;;;;;;2.83;0.80;;;16.70;92.00;;;;;;5005604;28;20715;-79
2022/05/30 13:04:15;;;;;;;2.95;0.98;;;16.80;92.10;;;;;;5002856;28;20099;-79
2022/05/30 13:06:58;;;;;;;5.82;0.88;;;16.80;92.30;;;;;;5003896;28;20052;-78
2022/05/30 13:09:33;;;;;;;3.67;0.90;;;16.80;90.30;;;;;;4999260;28;20029;-78
2022/05/30 13:12:11;;;;;;;3.05;0.88;;;16.70;92.40;;;;;;4997188;28;20048;-79
2022/05/30 13:14:36;;;;;;;3.33;0.88;;;16.60;90.50;;;;;;4998162;28;20072;-80
2022/05/30 13:17:18;;;;;;;2.97;1.02;;;16.80;90.70;;;;;;5006237;28;20029;-80
2022/05/30 13:19:48;;;;;;;5.28;1.30;;;17.00;90.70;;;;;;4995707;28;20445;-79
2022/05/30 13:22:31;;;;;;;3.70;0.90;;;17.40;90.30;;;;;;5000997;28;20025;-79
2022/05/30 13:24:57;;;;;;;4.00;1.25;;;17.80;89.10;;;;;;4990153;28;20200;-80
2022/05/30 13:27:25;;;;;;;5.30;1.02;;;18.20;87.20;;;;;;4994491;28;20550;-80
2022/05/30 13:29:51;;;;;;;1.95;0.80;;;18.70;84.40;;;;;;4993658;28;20505;-80
2022/05/30 13:32:20;;;;;;;1.85;0.82;;;18.90;96.60;;;;;;5007692;28;20042;-80